Savant Lake, Canada
Current Conditions -  °F | °C
As of 6:00 AM on Thursday 23 Oct 2014 (Local Time) from CYXL Reporting Station
Light Rain Light Rain  
Wind Chill: 42°   Ceiling: 1500
Heat Index: 46°   Visibility: 12mi
Dew Point: 43°   Wind: 9mph
Humidity: 87%   Direction: 180°S
Pressure: 29.87"   Gusts: NA
Location:  50.23°N, 90.72°W
Report Text: CYXL 231100Z 18008KT 12SM -RA OVC015 08/06 A2987 RMK SC8 SLP124
Loading
Personal Weather Stations






























Interactive Weather Map
Tropical Storm Tracking
New forecast layout! Learn more

10-Day Weather Forecast

Advertisements
Track Severe Weather on mobile